Flight Track Log - Related Links

Times and Time Zones

All times are in EDT time to prevent confusion due to time zone crossing. See the TRS220 flight status page for this flight to view local times or setup timezone preferences in your user account.

Time Position Orientation Groundspeed Altitude Reporting Facility
EDT Latitude Longitude Course Direction KTS MPH feet Rate Location/Type
Thu 07:25:49 AM 37.6644 -97.4339 15° North 181 208 2,200  Level Kansas Center
Thu 07:26:56 AM 37.7214 -97.4150 88° East 200 230 4,000 1,370 Climbing Kansas Center
Thu 07:27:56 AM 37.7231 -97.3469 130° Southeast 236 272 5,100 1,015 Climbing Kansas Center
Thu 07:29:06 AM 37.6706 -97.2689 132° Southeast 278 320 6,200 1,431 Climbing Kansas Center
Thu 07:30:06 AM 37.6139 -97.1908 133° Southeast 290 334 8,200 2,050 Climbing Kansas Center
Thu 07:31:06 AM 37.5553 -97.1125 135° Southeast 300 345 10,300 1,400 Climbing Kansas Center
Thu 07:32:06 AM 37.4881 -97.0292 116° Southeast 318 366 11,000 1,100 Climbing Kansas Center
Thu 07:33:06 AM 37.4425 -96.9100 112° Southeast 357 411 12,500 1,550 Climbing Kansas Center
Thu 07:34:06 AM 37.4014 -96.7806 112° Southeast 370 426 14,100 1,700 Climbing Kansas Center
Thu 07:35:06 AM 37.3600 -96.6486 112° Southeast 391 450 15,900 1,750 Climbing Kansas Center
Thu 07:36:06 AM 37.3164 -96.5117 111° Southeast 410 472 17,600 1,800 Climbing Kansas Center
Thu 07:37:06 AM 37.2728 -96.3694 112° Southeast 420 483 19,500 1,800 Climbing Kansas Center
Thu 07:38:06 AM 37.2269 -96.2250 111° Southeast 431 496 21,200 1,600 Climbing Kansas Center
Thu 07:39:06 AM 37.1811 -96.0753 112° Southeast 442 509 22,700 1,400 Climbing Kansas Center
Thu 07:40:06 AM 37.1331 -95.9233 112° Southeast 455 524 24,000 1,400 Climbing Kansas Center
Thu 07:41:06 AM 37.0825 -95.7661 113° Southeast 469 540 25,500 1,300 Climbing Kansas Center
Thu 07:42:06 AM 37.0300 -95.6092 112° Southeast 482 555 26,600 1,100 Climbing Kansas Center
Thu 07:43:06 AM 36.9769 -95.4472 111° Southeast 493 567 27,700 1,000 Climbing Kansas Center
Thu 07:44:06 AM 36.9261 -95.2856 112° Southeast 498 573 28,600 1,000 Climbing Kansas Center
Thu 07:45:06 AM 36.8708 -95.1186 112° Southeast 503 579 29,700 1,050 Climbing Kansas Center
Thu 07:46:06 AM 36.8111 -94.9342 114° Southeast 503 579 30,700 1,000 Climbing Kansas Center
Thu 07:47:06 AM 36.7531 -94.7706 111° Southeast 514 592 31,700 1,050 Climbing Kansas Center
Thu 07:48:06 AM 36.6992 -94.5994 113° Southeast 514 592 32,800 404 Climbing Kansas Center
Thu 07:50:19 AM 36.5736 -94.2378 113° Southeast 519 597 33,000 62 Climbing Memphis Center
Thu 07:51:19 AM 36.5181 -94.0725 113° Southeast 519 597 33,000  Level Memphis Center
Thu 07:52:19 AM 36.4625 -93.9100 114° Southeast 519 597 33,000  Level Memphis Center
Thu 07:53:19 AM 36.4025 -93.7422 114° Southeast 519 597 33,000  Level Memphis Center
Thu 07:54:19 AM 36.3422 -93.5750 113° Southeast 519 597 33,000  Level Memphis Center
Thu 07:55:19 AM 36.2861 -93.4106 113° Southeast 524 603 33,000  Level Memphis Center
Thu 07:56:19 AM 36.2294 -93.2439 115° Southeast 524 603 33,000  Level Memphis Center
Thu 07:57:19 AM 36.1686 -93.0797 114° Southeast 519 597 33,000  Level Memphis Center
Thu 07:58:19 AM 36.1094 -92.9133 113° Southeast 531 611 33,000  Level Memphis Center
Thu 07:59:19 AM 36.0583 -92.7678 115° Southeast 519 597 33,000  Level Memphis Center
Thu 08:00:19 AM 35.9967 -92.6019 113° Southeast 519 597 33,000  Level Memphis Center
Thu 08:01:19 AM 35.9392 -92.4389 114° Southeast 524 603 33,000  Level Memphis Center
Thu 08:02:19 AM 35.8792 -92.2758 114° Southeast 524 603 33,000  Level Memphis Center
Thu 08:03:20 AM 35.8211 -92.1133 115° Southeast 524 603 33,000  Level Memphis Center
Thu 08:04:19 AM 35.7606 -91.9508 114° Southeast 524 603 33,000  Level Memphis Center
Thu 08:05:19 AM 35.7022 -91.7886 115° Southeast 524 603 33,000  Level Memphis Center
Thu 08:06:19 AM 35.6414 -91.6267 115° Southeast 518 596 33,000  Level Memphis Center
Thu 08:07:19 AM 35.5822 -91.4675 114° Southeast 518 596 33,000  Level Memphis Center
Thu 08:08:19 AM 35.5233 -91.3058 115° Southeast 518 596 33,000  Level Memphis Center
Thu 08:09:19 AM 35.4639 -91.1497 115° Southeast 512 589 33,000  Level Memphis Center
Thu 08:10:19 AM 35.4022 -90.9861 115° Southeast 507 583 33,000  Level Memphis Center
Thu 08:11:19 AM 35.3422 -90.8281 116° Southeast 507 583 33,000  Level Memphis Center
Thu 08:12:19 AM 35.2803 -90.6725 115° Southeast 507 583 33,000  Level Memphis Center
Thu 08:13:19 AM 35.2200 -90.5122 115° Southeast 507 583 33,000  Level Memphis Center
Thu 08:14:19 AM 35.1533 -90.3367 115° Southeast 507 583 33,000  Level Memphis Center
Thu 08:15:19 AM 35.0928 -90.1794 115° Southeast 507 583 33,000  Level Memphis Center
Thu 08:16:19 AM 35.0319 -90.0222 102° East 507 583 33,000  Level Memphis Center
Thu 08:17:19 AM 35.0022 -89.8525 99° East 495 570 33,000  Level Memphis Center
Thu 08:18:19 AM 34.9783 -89.6778 102° East 513 590 33,000  Level Memphis Center
Thu 08:19:19 AM 34.9525 -89.5286 102° East 513 590 33,000  Level Memphis Center
Thu 08:20:19 AM 34.9242 -89.3667 100° East 499 574 33,000  Level Memphis Center
Thu 08:21:19 AM 34.8997 -89.1975 101° East 494 568 33,000  Level Memphis Center
Thu 08:22:19 AM 34.8731 -89.0358 100° East 494 568 33,000  Level Memphis Center
Thu 08:23:19 AM 34.8458 -88.8514 101° East 494 568 33,000  Level Memphis Center
Thu 08:24:19 AM 34.8208 -88.6900 100° East 494 568 33,000  Level Memphis Center
Thu 08:25:19 AM 34.7956 -88.5236 102° East 494 568 33,000  Level Memphis Center
Thu 08:26:19 AM 34.7706 -88.3825 100° East 483 556 33,000  Level Memphis Center
Thu 08:27:19 AM 34.7469 -88.2189 101° East 488 562 33,000  Level Memphis Center
Thu 08:28:19 AM 34.7183 -88.0325 101° East 499 574 33,000  Level Memphis Center
Thu 08:29:19 AM 34.6925 -87.8717 102° East 499 574 33,000  Level Memphis Center
Thu 08:30:19 AM 34.6639 -87.7083 100° East 494 568 33,000  Level Memphis Center
Thu 08:31:52 AM 34.6292 -87.4744 103° East 503 579 33,000  Level Atlanta Center
Thu 08:32:52 AM 34.5981 -87.3092 104° East 503 579 33,000  Level Atlanta Center
Thu 08:33:52 AM 34.5631 -87.1364 104° East 492 566 33,000  Level Atlanta Center
Thu 08:34:52 AM 34.5314 -86.9789 103° East 481 554 33,000  Level Atlanta Center
Thu 08:35:52 AM 34.5017 -86.8189 103° East 481 554 33,000 -100 Level Atlanta Center
Thu 08:36:52 AM 34.4717 -86.6617 103° East 476 548 32,800  Descending Atlanta Center
Thu 08:37:52 AM 34.4417 -86.5047 103° East 471 542 33,000 -3,200 Climbing Atlanta Center
Thu 08:38:52 AM 34.4114 -86.3450 104° East 476 548 26,400 -4,400 Descending Atlanta Center
Thu 08:39:52 AM 34.3825 -86.2083 103° East 469 540 24,200 -1,200 Descending Atlanta Center
Thu 08:40:52 AM 34.3539 -86.0567 108° East 464 534 24,000 -100 Descending Atlanta Center
Thu 08:41:52 AM 34.3144 -85.9100 118° Southeast 459 528 24,000  Level Atlanta Center
Thu 08:42:52 AM 34.2517 -85.7653 119° Southeast 452 520 24,000 -800 Level Atlanta Center
Thu 08:43:52 AM 34.1911 -85.6308 118° Southeast 448 516 22,400 -2,000 Descending Atlanta Center
Thu 08:44:52 AM 34.1342 -85.4994 118° Southeast 453 521 20,000 -2,350 Descending Atlanta Center
Thu 08:45:52 AM 34.0772 -85.3681 118° Southeast 442 509 17,700 -2,400 Descending Atlanta Center
Thu 08:46:52 AM 34.0222 -85.2444 119° Southeast 432 497 15,200 -2,300 Descending Atlanta Center
Thu 08:47:52 AM 33.9669 -85.1233 119° Southeast 424 488 13,100 -1,100 Descending Atlanta Center
Thu 08:48:52 AM 33.9197 -85.0200 116° Southeast 374 430 13,000 -200 Descending Atlanta Center
Thu 08:49:52 AM 33.8767 -84.9144 118° Southeast 351 404 12,700 -541 Descending Atlanta Center
Thu 08:50:43 AM 33.8333 -84.8167 116° Southeast 341 392 12,000 -378 Descending Atlanta TRACON
Thu 08:51:43 AM 33.8000 -84.7333 116° Southeast 295 339 12,000  Level Atlanta TRACON
Thu 08:52:37 AM 33.7667 -84.6500 121° Southeast 288 331 12,000  Level Atlanta TRACON
Thu 08:53:31 AM 33.7333 -84.5833 90° East 287 330 12,000 -842 Level Atlanta TRACON
Thu 08:54:31 AM 33.7333 -84.4833 90° East 305 351 10,400 -1,684 Descending Atlanta TRACON
Thu 08:55:25 AM 33.7333 -84.3833 90° East 301 346 8,800 -1,895 Descending Atlanta TRACON
Thu 08:56:25 AM 33.7333 -84.3000 116° Southeast 289 333 6,800 -2,053 Descending Atlanta TRACON
Thu 08:57:19 AM 33.7000 -84.2167 220° Southwest 278 320 4,900 -1,789 Descending Atlanta TRACON
Thu 08:58:19 AM 33.6667 -84.2500 239° Southwest 164 189 3,400 -1,000 Descending Atlanta TRACON
Thu 08:59:19 AM 33.6500 -84.2833 270° West 143 165 2,900 -632 Descending Atlanta TRACON
Thu 09:00:13 AM 33.6500 -84.3333 270° West 135 155 2,200 -684 Descending Atlanta TRACON
Thu 09:01:13 AM 33.6500 -84.3667 270° West 123 142 1,600 -600 Descending Atlanta TRACON

Login

Don't have an account? Register now (free) for customized features, flight alerts, and more!